createdAt,value
2023-04-26T00:01:31.848Z,100378.31
2023-04-26T00:04:02.319Z,100376.77
2023-04-26T00:06:29.293Z,100380.70
2023-04-26T00:08:56.240Z,100382.32
2023-04-26T00:11:23.079Z,100380.25
2023-04-26T00:13:49.754Z,100381.91
2023-04-26T00:16:18.485Z,100381.24
2023-04-26T00:18:46.389Z,100376.04
2023-04-26T00:21:13.281Z,100370.05
2023-04-26T00:23:40.027Z,100368.71
2023-04-26T00:26:06.741Z,100369.50
2023-04-26T00:28:33.543Z,100370.03
2023-04-26T00:31:00.218Z,100367.66
2023-04-26T00:33:27.087Z,100367.84
2023-04-26T00:35:53.685Z,100369.95
2023-04-26T00:38:20.689Z,100367.01
2023-04-26T00:40:47.413Z,100364.52
2023-04-26T00:43:14.013Z,100363.77
2023-04-26T00:45:40.803Z,100366.23
2023-04-26T00:48:07.752Z,100370.34
2023-04-26T00:50:35.059Z,100369.44
2023-04-26T00:53:03.136Z,100374.16
2023-04-26T00:55:30.325Z,100380.78
2023-04-26T00:57:57.817Z,100384.33
2023-04-26T01:00:24.725Z,100387.15
2023-04-26T01:02:52.126Z,100394.47
2023-04-26T01:05:19.300Z,100390.64
2023-04-26T01:07:46.602Z,100394.23
2023-04-26T01:10:13.252Z,100398.04
2023-04-26T01:12:40.381Z,100399.84
2023-04-26T01:15:07.582Z,100401.36
2023-04-26T01:17:34.284Z,100404.28
2023-04-26T01:20:01.053Z,100412.73
2023-04-26T01:22:28.749Z,100407.62
2023-04-26T01:24:58.159Z,100406.71
2023-04-26T01:27:24.935Z,100414.06
2023-04-26T01:29:51.618Z,100416.41
2023-04-26T01:32:18.651Z,100421.21
2023-04-26T01:34:45.267Z,100422.61
2023-04-26T01:37:11.993Z,100426.36
2023-04-26T01:39:38.701Z,100430.85
2023-04-26T01:42:05.529Z,100429.75
2023-04-26T01:44:32.173Z,100432.01
2023-04-26T01:47:01.459Z,100434.89
2023-04-26T01:49:28.102Z,100434.99
2023-04-26T01:51:55.907Z,100437.91
2023-04-26T01:54:23.774Z,100440.98
2023-04-26T01:56:50.766Z,100441.67
2023-04-26T01:59:17.681Z,100444.69
2023-04-26T02:01:44.392Z,100445.25
2023-04-26T02:04:11.243Z,100443.05
2023-04-26T02:06:38.099Z,100445.67
2023-04-26T02:09:05.172Z,100452.75
2023-04-26T02:11:31.925Z,100453.84
2023-04-26T02:13:58.566Z,100451.70
2023-04-26T02:16:25.659Z,100448.45
2023-04-26T02:18:53.843Z,100447.17
2023-04-26T02:21:22.155Z,100448.12
2023-04-26T02:23:48.869Z,100448.77
2023-04-26T02:26:15.817Z,100447.20
2023-04-26T02:28:43.686Z,100445.08
2023-04-26T02:31:11.435Z,100443.36
2023-04-26T02:33:38.502Z,100445.02
2023-04-26T02:36:06.381Z,100442.27
2023-04-26T02:38:35.224Z,100439.15
2023-04-26T02:41:03.884Z,100437.63
2023-04-26T02:43:30.796Z,100444.58
2023-04-26T02:45:59.077Z,100440.41
2023-04-26T02:48:26.057Z,100444.28
2023-04-26T02:50:53.307Z,100439.60
2023-04-26T02:53:20.066Z,100438.13
2023-04-26T02:55:46.937Z,100439.56
2023-04-26T02:58:13.670Z,100441.70
2023-04-26T03:00:46.309Z,100442.45
2023-04-26T03:03:13.250Z,100442.19
2023-04-26T03:05:40.660Z,100448.54
2023-04-26T03:08:08.150Z,100442.19
2023-04-26T03:10:34.760Z,100444.66
2023-04-26T03:13:01.615Z,100445.88
2023-04-26T03:15:28.283Z,100450.41
2023-04-26T03:17:54.989Z,100452.66
2023-04-26T03:20:22.085Z,100456.42
2023-04-26T03:22:48.815Z,100455.24
2023-04-26T03:25:16.451Z,100452.59
2023-04-26T03:27:43.235Z,100458.34
2023-04-26T03:30:10.892Z,100459.45
2023-04-26T03:32:38.714Z,100465.52
2023-04-26T03:35:05.986Z,100466.96
2023-04-26T03:37:32.951Z,100465.27
2023-04-26T03:40:03.100Z,100466.56
2023-04-26T03:42:29.681Z,100464.83
2023-04-26T03:44:56.440Z,100467.64
2023-04-26T03:47:23.189Z,100472.77
2023-04-26T03:49:50.867Z,100472.54
2023-04-26T03:52:17.530Z,100478.42
2023-04-26T03:54:44.114Z,100478.51
2023-04-26T03:57:11.662Z,100482.54
2023-04-26T03:59:38.405Z,100486.73
2023-04-26T04:02:05.200Z,100489.89
2023-04-26T04:04:32.407Z,100489.72
2023-04-26T04:06:59.566Z,100488.65
2023-04-26T04:09:26.293Z,100489.61
2023-04-26T04:11:54.572Z,100491.30
2023-04-26T04:14:21.452Z,100499.04
2023-04-26T04:16:48.373Z,100501.66
2023-04-26T04:19:14.960Z,100505.77
2023-04-26T04:21:43.449Z,100506.65
2023-04-26T04:24:10.084Z,100508.10
2023-04-26T04:26:37.435Z,100506.26
2023-04-26T04:29:09.234Z,100511.26
2023-04-26T04:31:38.112Z,100514.87
2023-04-26T04:34:04.915Z,100515.54
2023-04-26T04:36:32.433Z,100518.02
2023-04-26T04:38:59.012Z,100521.17
2023-04-26T04:41:26.355Z,100525.88
2023-04-26T04:43:53.903Z,100528.55
2023-04-26T04:46:21.666Z,100530.17
2023-04-26T04:48:48.619Z,100530.35
2023-04-26T04:51:15.311Z,100530.08
2023-04-26T04:53:42.128Z,100531.92
2023-04-26T04:56:09.089Z,100531.13
2023-04-26T04:58:36.340Z,100532.41
2023-04-26T05:01:02.997Z,100531.54
2023-04-26T05:03:37.655Z,100534.27
2023-04-26T05:06:04.732Z,100538.53
2023-04-26T05:08:31.598Z,100542.27
2023-04-26T05:11:03.099Z,100545.25
2023-04-26T05:13:29.754Z,100546.48
2023-04-26T05:15:56.622Z,100549.42
2023-04-26T05:18:23.473Z,100553.44
2023-04-26T05:20:50.736Z,100553.57
2023-04-26T05:23:17.520Z,100555.24
2023-04-26T05:25:44.321Z,100561.20
2023-04-26T05:28:37.354Z,100567.06
2023-04-26T05:31:25.148Z,100571.62
2023-04-26T05:34:21.353Z,100574.03
2023-04-26T05:36:51.650Z,100582.00
2023-04-26T05:39:20.458Z,100589.80
2023-04-26T05:41:47.765Z,100591.95
2023-04-26T05:44:14.943Z,100593.41
2023-04-26T05:46:41.602Z,100595.38
2023-04-26T05:49:09.645Z,100597.38
2023-04-26T05:51:36.398Z,100600.25
2023-04-26T05:54:03.994Z,100597.96
2023-04-26T05:56:31.296Z,100599.16
2023-04-26T05:58:58.411Z,100600.06
2023-04-26T06:01:25.122Z,100598.91
2023-04-26T06:03:52.583Z,100600.02
2023-04-26T06:06:22.009Z,100601.05
2023-04-26T06:08:48.747Z,100605.63
2023-04-26T06:11:15.464Z,100606.73
2023-04-26T06:13:42.557Z,100609.70
2023-04-26T06:16:09.566Z,100613.08
2023-04-26T06:18:36.334Z,100614.67
2023-04-26T06:21:03.370Z,100622.32
2023-04-26T06:23:30.224Z,100617.78
2023-04-26T06:25:56.861Z,100623.59
2023-04-26T06:28:23.542Z,100626.73
2023-04-26T06:30:50.212Z,100631.39
2023-04-26T06:33:17.374Z,100632.66
2023-04-26T06:35:43.995Z,100634.48
2023-04-26T06:38:12.915Z,100632.48
2023-04-26T06:40:39.606Z,100634.14
2023-04-26T06:43:06.253Z,100636.02
2023-04-26T06:45:46.329Z,100633.05
2023-04-26T06:48:13.146Z,100633.14
2023-04-26T06:50:40.252Z,100638.79
2023-04-26T06:53:07.761Z,100642.59
2023-04-26T06:55:35.318Z,100639.39
2023-04-26T06:58:02.106Z,100639.81
2023-04-26T07:00:30.029Z,100645.09
2023-04-26T07:02:57.255Z,100646.27
2023-04-26T07:05:24.217Z,100645.55
2023-04-26T07:07:50.848Z,100643.69
2023-04-26T07:10:17.604Z,100641.98
2023-04-26T07:12:44.373Z,100643.90
2023-04-26T07:15:11.601Z,100642.48
2023-04-26T07:17:38.403Z,100639.32
2023-04-26T07:20:05.857Z,100642.36
2023-04-26T07:22:32.597Z,100642.74
2023-04-26T07:24:59.229Z,100642.65
2023-04-26T07:27:26.212Z,100645.73
2023-04-26T07:29:59.567Z,100643.68
2023-04-26T07:32:26.417Z,100642.47
2023-04-26T07:34:53.660Z,100643.60
2023-04-26T07:37:20.356Z,100643.41
2023-04-26T07:39:47.084Z,100644.84
2023-04-26T07:42:13.783Z,100641.21
2023-04-26T07:44:40.728Z,100639.98
2023-04-26T07:47:14.532Z,100642.61
2023-04-26T07:49:41.520Z,100645.02
2023-04-26T07:52:08.747Z,100642.13
2023-04-26T07:54:35.835Z,100640.38
2023-04-26T07:57:02.666Z,100644.02
2023-04-26T07:59:29.357Z,100640.56
2023-04-26T08:01:56.001Z,100636.98
2023-04-26T08:04:32.927Z,100638.89
2023-04-26T08:07:02.109Z,100641.96
2023-04-26T08:09:30.934Z,100641.67
2023-04-26T08:11:57.866Z,100644.02
2023-04-26T08:14:24.706Z,100641.06
2023-04-26T08:16:51.747Z,100639.28
2023-04-26T08:19:18.539Z,100644.70
2023-04-26T08:21:45.199Z,100640.27
2023-04-26T08:24:11.771Z,100643.02
2023-04-26T08:26:38.554Z,100646.67
2023-04-26T08:29:05.236Z,100644.71
2023-04-26T08:31:32.048Z,100640.57
2023-04-26T08:33:58.816Z,100639.45
2023-04-26T08:36:26.196Z,100637.84
2023-04-26T08:38:52.799Z,100640.67
2023-04-26T08:41:23.863Z,100643.66
2023-04-26T08:43:51.733Z,100647.07
2023-04-26T08:46:20.108Z,100642.88
2023-04-26T08:48:53.796Z,100648.56
2023-04-26T08:51:22.285Z,100645.30
2023-04-26T08:53:53.280Z,100653.88
2023-04-26T08:56:23.742Z,100656.04
2023-04-26T08:58:50.919Z,100654.86
2023-04-26T09:01:19.110Z,100652.21
2023-04-26T09:03:47.059Z,100651.82
2023-04-26T09:06:15.291Z,100647.39
2023-04-26T09:08:43.117Z,100645.70
2023-04-26T09:11:09.682Z,100651.06
2023-04-26T09:13:36.418Z,100653.34
2023-04-26T09:16:04.988Z,100660.16
2023-04-26T09:18:34.087Z,100658.71
2023-04-26T09:21:05.005Z,100659.15
2023-04-26T09:23:32.329Z,100655.13
2023-04-26T09:26:22.504Z,100663.48
2023-04-26T09:28:49.558Z,100662.08
2023-04-26T09:31:39.596Z,100661.56
2023-04-26T09:34:06.490Z,100663.55
2023-04-26T09:36:33.152Z,100660.36
2023-04-26T09:39:00.152Z,100659.66
2023-04-26T09:41:43.909Z,100654.75
2023-04-26T09:44:23.865Z,100659.30
2023-04-26T09:47:00.792Z,100654.11
2023-04-26T09:49:28.946Z,100651.27
2023-04-26T09:52:03.797Z,100652.39
2023-04-26T09:54:54.574Z,100651.20
2023-04-26T09:57:22.440Z,100652.20
2023-04-26T09:59:55.558Z,100653.02
2023-04-26T10:02:27.937Z,100654.09
2023-04-26T10:04:57.505Z,100651.20
2023-04-26T10:07:25.872Z,100653.31
2023-04-26T10:09:53.747Z,100649.23
2023-04-26T10:12:20.801Z,100648.92
2023-04-26T10:14:48.207Z,100649.42
2023-04-26T10:17:33.630Z,100650.00
2023-04-26T10:20:04.843Z,100640.66
2023-04-26T10:22:37.288Z,100639.45
2023-04-26T10:25:04.264Z,100636.78
2023-04-26T10:27:43.261Z,100638.14
2023-04-26T10:30:12.404Z,100637.17
2023-04-26T10:32:57.626Z,100634.23
2023-04-26T10:35:26.624Z,100633.69
2023-04-26T10:38:02.573Z,100633.77
2023-04-26T10:40:33.343Z,100626.93
2023-04-26T10:43:13.836Z,100625.58
2023-04-26T10:45:45.215Z,100618.36
2023-04-26T10:48:22.684Z,100620.90
2023-04-26T10:51:01.366Z,100622.58
2023-04-26T10:53:29.214Z,100616.96
2023-04-26T10:55:55.926Z,100613.39
2023-04-26T10:58:33.670Z,100613.25
2023-04-26T11:01:18.423Z,100610.84
2023-04-26T11:03:57.762Z,100611.38
2023-04-26T11:06:26.952Z,100610.75
2023-04-26T11:08:54.905Z,100613.05
2023-04-26T11:11:26.437Z,100607.40
2023-04-26T11:13:53.144Z,100603.20
2023-04-26T11:16:19.841Z,100598.65
2023-04-26T11:18:47.817Z,100594.09
2023-04-26T11:21:18.237Z,100598.45
2023-04-26T11:23:54.219Z,100595.05
2023-04-26T11:26:20.814Z,100594.11
2023-04-26T11:28:49.422Z,100592.63
2023-04-26T11:31:19.036Z,100585.39
2023-04-26T11:33:46.800Z,100586.80
2023-04-26T11:36:15.172Z,100588.44
2023-04-26T11:38:41.897Z,100584.84
2023-04-26T11:41:08.477Z,100589.50
2023-04-26T11:43:38.819Z,100586.61
2023-04-26T11:46:07.035Z,100579.25
2023-04-26T11:48:36.078Z,100574.47
2023-04-26T11:51:04.581Z,100576.33
2023-04-26T11:53:37.860Z,100580.89
2023-04-26T11:56:18.525Z,100578.44
2023-04-26T11:58:50.152Z,100574.64
2023-04-26T12:01:22.254Z,100573.29
2023-04-26T12:03:56.616Z,100572.51
2023-04-26T12:06:33.767Z,100568.42
2023-04-26T12:09:05.932Z,100563.33
2023-04-26T12:11:32.897Z,100566.46
2023-04-26T12:14:00.053Z,100571.05
2023-04-26T12:16:27.448Z,100565.66
2023-04-26T12:18:57.205Z,100572.01
2023-04-26T12:21:25.549Z,100565.48
2023-04-26T12:23:52.365Z,100567.30
2023-04-26T12:26:20.510Z,100563.35
2023-04-26T12:28:47.377Z,100563.33
2023-04-26T12:31:14.115Z,100563.06
2023-04-26T12:33:41.183Z,100563.78
2023-04-26T12:36:12.702Z,100565.80
2023-04-26T12:38:39.815Z,100558.02
2023-04-26T12:41:06.986Z,100560.56
2023-04-26T12:43:33.688Z,100561.30
2023-04-26T12:46:01.635Z,100554.68
2023-04-26T12:48:29.174Z,100554.20
2023-04-26T12:50:56.108Z,100557.98
2023-04-26T12:53:22.756Z,100558.06
2023-04-26T12:55:49.459Z,100557.58
2023-04-26T12:58:16.143Z,100557.77
2023-04-26T13:00:44.463Z,100559.50
2023-04-26T13:03:14.892Z,100558.45
2023-04-26T13:05:42.211Z,100555.55
2023-04-26T13:08:09.107Z,100559.74
2023-04-26T13:10:35.811Z,100562.11
2023-04-26T13:13:02.802Z,100557.17
2023-04-26T13:15:30.056Z,100555.60
2023-04-26T13:17:57.055Z,100553.67
2023-04-26T13:20:25.740Z,100548.88
2023-04-26T13:22:53.614Z,100542.02
2023-04-26T13:25:20.467Z,100541.37
2023-04-26T13:27:47.184Z,100537.45
2023-04-26T13:30:14.714Z,100534.77
2023-04-26T13:32:41.472Z,100535.77
2023-04-26T13:35:08.774Z,100531.64
2023-04-26T13:37:35.558Z,100529.05
2023-04-26T13:40:02.454Z,100522.45
2023-04-26T13:42:29.086Z,100517.14
2023-04-26T13:44:55.754Z,100521.61
2023-04-26T13:47:22.493Z,100520.02
2023-04-26T13:49:49.201Z,100523.64
2023-04-26T13:52:16.158Z,100526.09
2023-04-26T13:54:43.287Z,100523.04
2023-04-26T13:57:09.914Z,100525.20
2023-04-26T13:59:36.511Z,100518.89
2023-04-26T14:02:03.746Z,100515.87
2023-04-26T14:04:30.945Z,100518.77
2023-04-26T14:06:58.771Z,100516.09
2023-04-26T14:09:25.563Z,100512.58
2023-04-26T14:12:06.591Z,100514.52
2023-04-26T14:14:34.655Z,100514.31
2023-04-26T14:17:01.800Z,100513.13
2023-04-26T14:19:28.463Z,100515.11
2023-04-26T14:21:55.098Z,100513.61
2023-04-26T14:24:21.815Z,100511.70
2023-04-26T14:26:48.597Z,100505.30
2023-04-26T14:29:15.294Z,100504.73
2023-04-26T14:31:42.163Z,100506.84
2023-04-26T14:34:08.795Z,100506.27
2023-04-26T14:36:35.708Z,100504.67
2023-04-26T14:39:02.369Z,100501.84
2023-04-26T14:41:28.946Z,100500.67
2023-04-26T14:43:56.258Z,100494.03
2023-04-26T14:46:22.936Z,100491.48
2023-04-26T14:48:49.949Z,100489.62
2023-04-26T14:51:16.877Z,100486.83
2023-04-26T14:53:43.504Z,100485.45
2023-04-26T14:56:10.794Z,100478.70
2023-04-26T14:58:37.464Z,100475.76
2023-04-26T15:01:04.541Z,100476.80
2023-04-26T15:03:32.665Z,100474.20
2023-04-26T15:06:00.238Z,100474.45
2023-04-26T15:08:26.964Z,100468.22
2023-04-26T15:10:53.983Z,100467.78
2023-04-26T15:13:20.666Z,100466.08
2023-04-26T15:15:47.469Z,100467.31
2023-04-26T15:18:14.443Z,100462.48
2023-04-26T15:20:41.567Z,100463.95
2023-04-26T15:23:08.607Z,100461.89
2023-04-26T15:25:37.027Z,100461.27
2023-04-26T15:28:04.107Z,100461.95
2023-04-26T15:30:30.918Z,100462.70
2023-04-26T15:32:58.103Z,100459.36
2023-04-26T15:35:25.156Z,100454.98
2023-04-26T15:37:54.120Z,100451.77
2023-04-26T15:40:24.793Z,100447.52
2023-04-26T15:42:52.153Z,100452.16
2023-04-26T15:45:19.992Z,100452.68
2023-04-26T15:47:47.317Z,100456.65
2023-04-26T15:50:14.989Z,100456.52
2023-04-26T15:52:42.162Z,100456.10
2023-04-26T15:55:09.878Z,100462.27
2023-04-26T15:57:37.911Z,100456.82
2023-04-26T16:00:08.412Z,100462.55
2023-04-26T16:02:35.582Z,100460.17
2023-04-26T16:05:02.702Z,100456.18
2023-04-26T16:07:29.982Z,100462.46
2023-04-26T16:09:56.708Z,100466.24
2023-04-26T16:12:23.469Z,100466.57
2023-04-26T16:14:52.141Z,100468.48
2023-04-26T16:17:18.846Z,100470.48
2023-04-26T16:19:45.627Z,100467.52
2023-04-26T16:22:12.191Z,100469.83
2023-04-26T16:24:38.815Z,100464.55
2023-04-26T16:27:05.410Z,100459.30
2023-04-26T16:29:32.065Z,100457.66
2023-04-26T16:31:58.834Z,100461.77
2023-04-26T16:34:26.862Z,100461.24
2023-04-26T16:36:53.460Z,100458.70
2023-04-26T16:39:20.356Z,100460.34
2023-04-26T16:41:46.966Z,100463.36
2023-04-26T16:44:13.599Z,100465.31
2023-04-26T16:46:40.432Z,100468.09
2023-04-26T16:49:09.708Z,100465.39
2023-04-26T16:51:38.141Z,100463.85
2023-04-26T16:54:05.073Z,100467.67
2023-04-26T16:56:32.516Z,100469.58
2023-04-26T16:58:59.716Z,100472.89
2023-04-26T17:01:26.591Z,100475.79
2023-04-26T17:03:53.942Z,100475.35
2023-04-26T17:06:21.180Z,100474.21
2023-04-26T17:08:48.270Z,100468.59
2023-04-26T17:11:16.254Z,100471.83
2023-04-26T17:13:44.088Z,100470.80
2023-04-26T17:16:11.293Z,100472.48
2023-04-26T17:18:38.646Z,100479.98
2023-04-26T17:21:06.106Z,100483.51
2023-04-26T17:23:33.854Z,100487.99
2023-04-26T17:26:01.861Z,100488.13
2023-04-26T17:28:28.852Z,100492.23
2023-04-26T17:30:55.646Z,100492.27
2023-04-26T17:33:22.391Z,100492.89
2023-04-26T17:35:49.212Z,100492.92
2023-04-26T17:38:15.999Z,100495.08
2023-04-26T17:40:42.738Z,100496.56
2023-04-26T17:43:09.523Z,100496.17
2023-04-26T17:45:36.256Z,100494.11
2023-04-26T17:48:03.246Z,100488.85
2023-04-26T17:50:30.446Z,100490.89
2023-04-26T17:52:57.147Z,100489.80
2023-04-26T17:55:23.917Z,100494.01
2023-04-26T17:57:50.662Z,100496.38
2023-04-26T18:00:18.082Z,100495.90
2023-04-26T18:02:44.801Z,100499.44
2023-04-26T18:05:11.889Z,100503.83
2023-04-26T18:07:38.644Z,100507.82
2023-04-26T18:10:06.594Z,100514.44
2023-04-26T18:12:33.344Z,100517.38
2023-04-26T18:14:59.944Z,100521.12
2023-04-26T18:17:27.139Z,100522.37
2023-04-26T18:19:54.231Z,100523.65
2023-04-26T18:22:20.942Z,100529.45
2023-04-26T18:24:48.785Z,100522.09
2023-04-26T18:27:15.514Z,100522.83
2023-04-26T18:29:42.552Z,100525.86
2023-04-26T18:32:09.332Z,100525.88
2023-04-26T18:34:36.025Z,100529.11
2023-04-26T18:37:02.824Z,100532.67
2023-04-26T18:39:30.369Z,100532.67
2023-04-26T18:41:57.072Z,100537.00
2023-04-26T18:44:23.717Z,100545.05
2023-04-26T18:46:52.230Z,100555.20
2023-04-26T18:49:18.984Z,100566.77
2023-04-26T18:51:45.698Z,100573.42
2023-04-26T18:54:12.332Z,100572.98
2023-04-26T18:56:39.506Z,100574.56
2023-04-26T18:59:06.116Z,100576.03
2023-04-26T19:01:33.520Z,100579.09
2023-04-26T19:04:00.646Z,100584.92
2023-04-26T19:06:28.255Z,100585.92
2023-04-26T19:08:55.139Z,100592.86
2023-04-26T19:11:21.771Z,100589.19
2023-04-26T19:13:48.702Z,100595.13
2023-04-26T19:16:15.405Z,100592.70
2023-04-26T19:18:44.126Z,100598.38
2023-04-26T19:21:11.007Z,100603.51
2023-04-26T19:23:37.639Z,100613.31
2023-04-26T19:26:14.118Z,100618.89
2023-04-26T19:28:41.347Z,100623.89
2023-04-26T19:31:08.194Z,100629.91
2023-04-26T19:33:34.894Z,100633.30
2023-04-26T19:36:01.582Z,100636.08
2023-04-26T19:38:28.872Z,100640.17
2023-04-26T19:40:55.660Z,100646.05
2023-04-26T19:43:22.398Z,100644.56
2023-04-26T19:45:49.170Z,100641.60
2023-04-26T19:48:16.013Z,100642.50
2023-04-26T19:50:44.752Z,100639.94
2023-04-26T19:53:13.285Z,100641.76
2023-04-26T19:55:42.298Z,100644.98
2023-04-26T19:58:10.865Z,100645.02
2023-04-26T20:00:38.979Z,100651.38
2023-04-26T20:03:07.269Z,100657.80
2023-04-26T20:05:34.378Z,100661.78
2023-04-26T20:08:01.446Z,100667.10
2023-04-26T20:10:32.195Z,100671.80
2023-04-26T20:12:59.421Z,100671.39
2023-04-26T20:15:27.682Z,100666.82
2023-04-26T20:17:54.366Z,100669.45
2023-04-26T20:20:21.369Z,100671.77
2023-04-26T20:22:48.032Z,100671.35
2023-04-26T20:25:14.648Z,100677.27
2023-04-26T20:27:41.386Z,100678.83
2023-04-26T20:30:08.659Z,100681.52
2023-04-26T20:32:35.551Z,100680.96
2023-04-26T20:35:02.354Z,100691.65
2023-04-26T20:37:29.120Z,100691.94
2023-04-26T20:39:55.777Z,100696.80
2023-04-26T20:42:23.204Z,100695.56
2023-04-26T20:44:49.929Z,100697.80
2023-04-26T20:47:16.697Z,100701.66
2023-04-26T20:49:43.297Z,100700.64
2023-04-26T20:52:10.183Z,100703.17
2023-04-26T20:54:36.848Z,100704.05
2023-04-26T20:57:03.901Z,100706.72
2023-04-26T20:59:30.896Z,100699.79
2023-04-26T21:01:57.895Z,100699.52
2023-04-26T21:04:24.943Z,100702.41
2023-04-26T21:06:52.002Z,100700.88
2023-04-26T21:09:18.683Z,100706.67
2023-04-26T21:11:45.488Z,100701.69
2023-04-26T21:14:13.789Z,100702.48
2023-04-26T21:16:40.690Z,100705.71
2023-04-26T21:19:08.125Z,100705.36
2023-04-26T21:21:35.200Z,100709.54
2023-04-26T21:24:03.368Z,100713.85
2023-04-26T21:26:30.208Z,100715.38
2023-04-26T21:28:56.936Z,100718.90
2023-04-26T21:31:23.722Z,100718.80
2023-04-26T21:33:50.946Z,100721.94
2023-04-26T21:36:17.605Z,100716.59
2023-04-26T21:38:44.537Z,100718.57
2023-04-26T21:41:11.317Z,100719.29
2023-04-26T21:43:38.181Z,100723.22
2023-04-26T21:46:04.988Z,100722.11
2023-04-26T21:48:31.612Z,100723.40
2023-04-26T21:50:58.419Z,100720.84
2023-04-26T21:53:25.110Z,100724.25
2023-04-26T21:55:52.964Z,100723.59
2023-04-26T21:58:20.693Z,100727.77
2023-04-26T22:00:47.706Z,100728.58
2023-04-26T22:03:15.208Z,100727.10
2023-04-26T22:05:42.142Z,100726.65
2023-04-26T22:08:08.870Z,100728.13
2023-04-26T22:10:36.437Z,100731.77
2023-04-26T22:13:03.386Z,100737.17
2023-04-26T22:15:30.075Z,100734.27
2023-04-26T22:17:56.860Z,100733.80
2023-04-26T22:20:23.599Z,100737.58
2023-04-26T22:22:50.190Z,100732.58
2023-04-26T22:25:16.840Z,100737.23
2023-04-26T22:27:43.516Z,100735.79
2023-04-26T22:30:23.812Z,100737.75
2023-04-26T22:32:54.778Z,100738.06
2023-04-26T22:35:25.982Z,100740.75
2023-04-26T22:37:52.699Z,100741.95
2023-04-26T22:40:20.088Z,100741.77
2023-04-26T22:42:46.731Z,100743.58
2023-04-26T22:45:13.961Z,100743.69
2023-04-26T22:47:41.584Z,100745.73
2023-04-26T22:50:08.825Z,100741.80
2023-04-26T22:52:36.337Z,100739.81
2023-04-26T22:55:03.098Z,100744.64
2023-04-26T22:57:31.297Z,100745.83
2023-04-26T22:59:58.004Z,100747.71
2023-04-26T23:02:24.743Z,100753.88
2023-04-26T23:04:51.649Z,100762.48
2023-04-26T23:07:18.333Z,100770.70
2023-04-26T23:09:45.110Z,100774.48
2023-04-26T23:12:25.437Z,100774.41
2023-04-26T23:14:52.300Z,100775.31
2023-04-26T23:17:20.616Z,100779.19
2023-04-26T23:19:47.418Z,100779.30
2023-04-26T23:22:15.684Z,100779.67
2023-04-26T23:24:42.264Z,100774.31
2023-04-26T23:27:08.867Z,100773.14
2023-04-26T23:29:35.690Z,100774.64
2023-04-26T23:32:02.423Z,100767.77
2023-04-26T23:34:29.008Z,100765.90
2023-04-26T23:36:55.832Z,100766.85
2023-04-26T23:39:22.442Z,100762.77
2023-04-26T23:41:49.067Z,100761.23
2023-04-26T23:44:15.806Z,100759.34
2023-04-26T23:46:42.525Z,100758.52
2023-04-26T23:49:09.176Z,100754.96
2023-04-26T23:51:35.813Z,100754.73
2023-04-26T23:54:02.534Z,100755.59
2023-04-26T23:56:29.960Z,100752.86
2023-04-26T23:58:58.374Z,100755.77
